createdAt,value
2022-11-21T00:02:29.453Z,3.13
2022-11-21T00:07:31.889Z,3.42
2022-11-21T00:12:34.220Z,3.33
2022-11-21T00:17:36.434Z,4.00
2022-11-21T00:22:38.549Z,4.50
2022-11-21T00:27:41.240Z,5.00
2022-11-21T00:32:43.332Z,5.25
2022-11-21T00:37:45.589Z,4.82
2022-11-21T00:42:47.862Z,4.30
2022-11-21T00:47:50.007Z,4.10
2022-11-21T00:52:59.164Z,4.43
2022-11-21T00:58:01.421Z,4.40
2022-11-21T01:03:03.795Z,4.60
2022-11-21T01:08:06.012Z,4.15
2022-11-21T01:13:08.424Z,4.10
2022-11-21T01:18:10.625Z,3.92
2022-11-21T01:23:12.790Z,3.88
2022-11-21T01:28:14.886Z,3.75
2022-11-21T01:33:16.952Z,2.42
2022-11-21T01:38:19.304Z,3.85
2022-11-21T01:43:21.574Z,3.47
2022-11-21T01:48:27.720Z,3.30
2022-11-21T01:53:29.971Z,3.22
2022-11-21T01:58:35.536Z,3.13
2022-11-21T02:03:38.849Z,4.80
2022-11-21T02:08:43.781Z,4.22
2022-11-21T02:13:45.837Z,3.80
2022-11-21T02:18:48.289Z,2.78
2022-11-21T02:24:00.354Z,2.20
2022-11-21T02:29:03.095Z,2.25
2022-11-21T02:34:05.196Z,3.35
2022-11-21T02:39:10.142Z,2.28
2022-11-21T02:44:22.557Z,2.30
2022-11-21T02:49:51.439Z,2.85
2022-11-21T02:54:53.809Z,3.13
2022-11-21T02:59:55.900Z,2.67
2022-11-21T03:04:58.145Z,2.00
2022-11-21T03:10:00.333Z,1.83
2022-11-21T03:15:02.845Z,1.73
2022-11-21T03:20:06.331Z,1.88
2022-11-21T03:25:08.876Z,1.67
2022-11-21T03:30:12.197Z,1.80
2022-11-21T03:35:15.404Z,1.40
2022-11-21T03:40:17.638Z,1.80
2022-11-21T03:45:20.616Z,2.03
2022-11-21T03:50:22.988Z,2.50
2022-11-21T03:55:25.113Z,1.73
2022-11-21T04:00:27.322Z,1.80
2022-11-21T04:05:30.011Z,1.63
2022-11-21T04:10:32.123Z,1.40
2022-11-21T04:15:34.173Z,1.42
2022-11-21T04:20:36.608Z,1.45
2022-11-21T04:25:38.881Z,1.55
2022-11-21T04:30:44.707Z,1.85
2022-11-21T04:35:47.661Z,1.55
2022-11-21T04:40:50.153Z,1.52
2022-11-21T04:45:52.558Z,1.63
2022-11-21T04:50:54.691Z,2.08
2022-11-21T04:55:56.950Z,6.82
2022-11-21T05:01:06.190Z,1.90
2022-11-21T05:06:08.726Z,2.70
2022-11-21T05:11:29.385Z,1.60
2022-11-21T05:16:33.595Z,1.42
2022-11-21T05:21:36.002Z,2.00
2022-11-21T05:26:38.367Z,1.40
2022-11-21T05:31:40.489Z,1.73
2022-11-21T05:36:42.833Z,1.50
2022-11-21T05:41:45.138Z,2.08
2022-11-21T05:46:47.665Z,2.85
2022-11-21T05:51:49.883Z,1.50
2022-11-21T05:56:52.060Z,3.75
2022-11-21T06:02:12.870Z,2.05
2022-11-21T06:07:20.080Z,2.58
2022-11-21T06:12:25.431Z,8.80
2022-11-21T06:17:28.155Z,1.80
2022-11-21T06:22:30.389Z,1.90
2022-11-21T06:27:32.639Z,1.58
2022-11-21T06:32:38.634Z,1.45
2022-11-21T06:37:40.695Z,1.63
2022-11-21T06:42:42.976Z,1.88
2022-11-21T06:47:45.213Z,2.08
2022-11-21T06:52:47.367Z,1.80
2022-11-21T06:57:49.730Z,1.80
2022-11-21T07:02:51.913Z,1.80
2022-11-21T07:08:02.250Z,1.92
2022-11-21T07:13:22.920Z,1.85
2022-11-21T07:18:25.227Z,1.73
2022-11-21T07:23:28.200Z,1.70
2022-11-21T07:28:32.421Z,2.08
2022-11-21T07:33:34.672Z,2.22
2022-11-21T07:38:36.916Z,2.22
2022-11-21T07:43:39.314Z,2.20
2022-11-21T07:48:41.439Z,1.70
2022-11-21T07:53:43.425Z,1.67
2022-11-21T07:58:45.631Z,1.65
2022-11-21T08:03:47.856Z,1.75
2022-11-21T08:08:56.198Z,1.90
2022-11-21T08:13:59.915Z,1.92
2022-11-21T08:19:02.268Z,1.90
2022-11-21T08:24:05.392Z,1.80
2022-11-21T08:29:07.690Z,1.67
2022-11-21T08:34:14.204Z,1.67
2022-11-21T08:39:16.817Z,1.95
2022-11-21T08:44:18.848Z,1.50
2022-11-21T08:49:21.225Z,1.65
2022-11-21T08:54:24.971Z,1.80
2022-11-21T08:59:27.209Z,1.42
2022-11-21T09:04:29.827Z,1.60
2022-11-21T09:09:32.105Z,1.75
2022-11-21T09:14:52.724Z,1.50
2022-11-21T09:19:55.032Z,3.47
2022-11-21T09:24:57.356Z,1.90
2022-11-21T09:29:59.775Z,2.00
2022-11-21T09:35:02.102Z,2.20
2022-11-21T09:40:06.191Z,2.70
2022-11-21T09:45:34.752Z,2.63
2022-11-21T09:50:41.843Z,2.58
2022-11-21T09:55:58.811Z,2.92
2022-11-21T10:01:01.777Z,1.70
2022-11-21T10:06:20.754Z,1.60
2022-11-21T10:11:33.225Z,2.13
2022-11-21T10:17:01.595Z,2.15
2022-11-21T10:22:19.121Z,2.50
2022-11-21T10:27:34.886Z,2.53
2022-11-21T10:32:41.220Z,2.00
2022-11-21T10:37:54.727Z,1.88
2022-11-21T10:43:44.815Z,3.05
2022-11-21T10:49:00.932Z,2.08
2022-11-21T10:54:27.503Z,1.92
2022-11-21T10:59:31.500Z,1.17
2022-11-21T11:04:43.826Z,1.40
2022-11-21T11:09:48.747Z,1.50
2022-11-21T11:14:53.420Z,0.90
2022-11-21T11:20:07.309Z,1.15
2022-11-21T11:25:10.139Z,1.00
2022-11-21T11:30:17.645Z,1.48
2022-11-21T11:35:23.398Z,1.30
2022-11-21T11:40:41.553Z,1.80
2022-11-21T11:46:50.188Z,1.50
2022-11-21T11:51:57.347Z,1.50
2022-11-21T11:56:59.963Z,1.80
2022-11-21T12:02:11.681Z,2.55
2022-11-21T12:08:38.740Z,1.95
2022-11-21T12:13:02.765Z,4.07
2022-11-21T12:18:07.716Z,2.38
2022-11-21T12:23:10.913Z,1.52
2022-11-21T12:28:31.636Z,2.00
2022-11-21T12:33:40.178Z,4.47
2022-11-21T12:39:27.080Z,3.92
2022-11-21T12:44:56.016Z,2.60
2022-11-21T12:50:41.649Z,1.83
2022-11-21T12:55:43.879Z,2.40
2022-11-21T13:01:30.134Z,3.13
2022-11-21T13:06:39.085Z,1.52
2022-11-21T13:12:07.983Z,1.42
2022-11-21T13:17:29.099Z,1.80
2022-11-21T13:22:37.612Z,4.28
2022-11-21T13:27:43.114Z,3.22
2022-11-21T13:32:55.458Z,5.30
2022-11-21T13:38:08.408Z,2.50
2022-11-21T13:43:34.505Z,2.55
2022-11-21T13:49:05.081Z,2.92
2022-11-21T13:54:27.096Z,9.70
2022-11-21T13:59:49.721Z,31.92
2022-11-21T14:05:13.604Z,3.85
2022-11-21T14:10:25.565Z,7.28
2022-11-21T14:15:51.669Z,5.35
2022-11-21T14:20:57.712Z,2.10
2022-11-21T14:26:11.025Z,2.33
2022-11-21T14:31:15.044Z,2.00
2022-11-21T14:36:20.354Z,2.28
2022-11-21T14:41:25.268Z,14.05
2022-11-21T14:46:30.185Z,6.75
2022-11-21T14:51:32.624Z,3.03
2022-11-21T14:56:34.915Z,15.65
2022-11-21T15:01:37.146Z,42.13
2022-11-21T15:06:44.881Z,32.35
2022-11-21T15:12:00.637Z,42.15
2022-11-21T15:17:07.056Z,2.80
2022-11-21T15:22:31.231Z,1.70
2022-11-21T15:27:35.441Z,5.38
2022-11-21T15:33:01.212Z,27.42
2022-11-21T15:38:03.686Z,28.05
2022-11-21T15:43:09.735Z,5.07
2022-11-21T15:48:11.998Z,4.18
2022-11-21T15:53:18.487Z,7.18
2022-11-21T15:58:20.752Z,3.40
2022-11-21T16:03:23.043Z,2.30
2022-11-21T16:08:25.187Z,4.40
2022-11-21T16:13:27.673Z,7.15
2022-11-21T16:18:30.144Z,5.68
2022-11-21T16:23:32.405Z,7.40
2022-11-21T16:28:35.545Z,21.95
2022-11-21T16:33:39.783Z,18.20
2022-11-21T16:38:42.867Z,27.58
2022-11-21T16:43:50.191Z,36.03
2022-11-21T16:49:03.294Z,17.27
2022-11-21T16:54:09.128Z,14.35
2022-11-21T16:59:11.868Z,13.63
2022-11-21T17:04:17.157Z,27.60
2022-11-21T17:09:19.894Z,28.77
2022-11-21T17:14:22.193Z,20.33
2022-11-21T17:19:24.375Z,14.23
2022-11-21T17:24:26.772Z,12.35
2022-11-21T17:29:29.996Z,12.55
2022-11-21T17:34:33.357Z,37.65
2022-11-21T17:39:36.594Z,100.60
2022-11-21T17:44:39.025Z,59.80
2022-11-21T17:49:41.596Z,33.83
2022-11-21T17:54:43.733Z,65.88
2022-11-21T17:59:47.058Z,12.02
2022-11-21T18:04:50.008Z,2.40
2022-11-21T18:09:52.649Z,6.10
2022-11-21T18:14:54.923Z,5.32
2022-11-21T18:19:58.345Z,3.63
2022-11-21T18:25:01.645Z,3.22
2022-11-21T18:30:05.306Z,3.63
2022-11-21T18:35:07.641Z,3.70
2022-11-21T18:40:10.479Z,3.40
2022-11-21T18:45:12.761Z,3.60
2022-11-21T18:50:15.598Z,8.88
2022-11-21T18:55:17.652Z,3.80
2022-11-21T19:00:20.096Z,4.10
2022-11-21T19:05:22.361Z,4.53
2022-11-21T19:15:47.351Z,3.90
2022-11-21T19:20:49.520Z,3.78
2022-11-21T19:25:51.580Z,3.67
2022-11-21T19:30:53.714Z,4.30
2022-11-21T19:36:07.761Z,4.30
2022-11-21T19:41:16.701Z,8.15
2022-11-21T19:46:21.778Z,9.52
2022-11-21T19:51:29.599Z,6.78
2022-11-21T19:56:32.568Z,5.75
2022-11-21T20:01:35.690Z,5.03
2022-11-21T20:06:41.651Z,5.05
2022-11-21T20:11:46.214Z,4.80
2022-11-21T20:16:49.853Z,5.00
2022-11-21T20:21:53.084Z,5.13
2022-11-21T20:26:55.355Z,4.95
2022-11-21T20:31:59.446Z,4.82
2022-11-21T20:37:01.733Z,8.55
2022-11-21T20:42:03.993Z,6.35
2022-11-21T20:47:07.659Z,8.27
2022-11-21T20:53:43.860Z,6.15
2022-11-21T20:57:32.079Z,5.28
2022-11-21T21:02:34.260Z,5.40
2022-11-21T21:07:36.532Z,5.45
2022-11-21T21:12:38.849Z,6.97
2022-11-21T21:17:41.166Z,8.23
2022-11-21T21:22:43.287Z,6.70
2022-11-21T21:27:53.371Z,5.63
2022-11-21T21:32:55.996Z,4.73
2022-11-21T21:37:58.075Z,4.78
2022-11-21T21:43:00.708Z,4.95
2022-11-21T21:48:03.007Z,4.90
2022-11-21T21:53:05.098Z,5.47
2022-11-21T21:58:07.166Z,5.07
2022-11-21T22:03:09.192Z,4.78
2022-11-21T22:08:11.456Z,4.57
2022-11-21T22:13:13.540Z,4.47
2022-11-21T22:18:15.614Z,4.45
2022-11-21T22:23:17.818Z,4.43
2022-11-21T22:28:19.961Z,4.63
2022-11-21T22:33:22.174Z,4.20
2022-11-21T22:38:24.420Z,4.38
2022-11-21T22:43:26.417Z,4.30
2022-11-21T22:48:29.505Z,4.10
2022-11-21T22:53:37.024Z,4.57
2022-11-21T22:58:42.698Z,4.00
2022-11-21T23:03:45.459Z,7.35
2022-11-21T23:08:48.017Z,4.25
2022-11-21T23:13:51.701Z,6.68
2022-11-21T23:18:55.385Z,9.57
2022-11-21T23:23:57.555Z,4.72
2022-11-21T23:29:05.039Z,4.38
2022-11-21T23:34:11.376Z,4.20
2022-11-21T23:39:13.775Z,5.00
2022-11-21T23:44:16.081Z,4.55
2022-11-21T23:49:18.195Z,5.70
2022-11-21T23:54:20.271Z,6.00
2022-11-21T23:59:22.522Z,5.43
